Time;durP1;ratioP1;P1;durP2;ratioP2;P2;SDS_P1;SDS_P2;PMS_P1;PMS_P2;Temp;Humidity;BMP_temperature;BMP_pressure;BME280_temperature;BME280_humidity;BME280_pressure;Samples;Min_cycle;Max_cycle;Signal;HPM_P1;HPM_P2
2022/12/09 00:00:55;;;;;;;3.42;2.30;;;;;;;6.69;62.13;100033.44;18393408;32;20117;-59
2022/12/09 00:10:58;;;;;;;2.33;2.20;;;;;;;6.42;63.67;100025.47;18394254;32;20164;-58
2022/12/09 00:21:13;;;;;;;1.30;1.27;;;;;;;6.69;62.75;100021.34;18392533;32;20117;-59
2022/12/09 00:31:20;;;;;;;0.60;0.60;;;;;;;6.64;62.76;100016.13;18393209;32;20112;-59
2022/12/09 00:41:25;;;;;;;0.62;0.62;;;;;;;6.65;62.76;100017.88;18393808;32;20137;-59
2022/12/09 00:51:28;;;;;;;0.77;0.62;;;;;;;6.74;62.53;100050.81;18391664;32;20529;-59
2022/12/09 01:01:33;;;;;;;0.95;0.95;;;;;;;6.75;62.46;100055.13;18389580;32;20101;-59
2022/12/09 01:11:36;;;;;;;0.73;0.73;;;;;;;6.68;62.85;100040.37;18391283;32;20135;-59
2022/12/09 01:21:41;;;;;;;1.73;1.62;;;;;;;6.71;63.21;100027.41;18388657;32;20169;-59
2022/12/09 01:31:44;;;;;;;1.50;1.40;;;;;;;6.68;63.17;100027.41;18389414;32;20117;-59
2022/12/09 01:41:50;;;;;;;0.52;0.52;;;;;;;6.68;63.35;100032.59;18388350;32;20123;-59
2022/12/09 01:52:01;;;;;;;1.55;1.45;;;;;;;6.63;64.11;100034.28;18387373;32;20089;-59
2022/12/09 02:02:08;;;;;;;1.15;1.12;;;;;;;6.80;62.97;100019.72;18386822;32;20093;-58
2022/12/09 02:12:13;;;;;;;3.12;2.90;;;;;;;6.71;62.94;100011.84;18384952;32;20200;-59
2022/12/09 02:22:23;;;;;;;0.73;0.73;;;;;;;6.71;63.15;100023.97;18385149;32;20699;-58
2022/12/09 02:32:38;;;;;;;0.40;0.40;;;;;;;6.60;63.66;100022.16;18393089;32;20153;-59
2022/12/09 02:42:45;;;;;;;0.50;0.50;;;;;;;6.58;63.70;100016.06;18395363;32;20116;-58
2022/12/09 02:52:50;;;;;;;0.50;0.50;;;;;;;6.64;63.52;100005.75;18393443;32;20413;-58
2022/12/09 03:02:56;;;;;;;1.37;1.33;;;;;;;6.64;63.50;99992.78;18398181;32;20131;-58
2022/12/09 03:13:06;;;;;;;0.52;0.52;;;;;;;6.51;63.77;100003.94;18434692;32;20116;-58
2022/12/09 03:23:13;;;;;;;0.90;0.90;;;;;;;6.39;64.03;99991.72;18433038;32;20100;-58
2022/12/09 03:33:18;;;;;;;2.25;1.83;;;;;;;6.37;64.29;99985.69;18434223;32;20097;-57
2022/12/09 03:43:26;;;;;;;0.70;0.70;;;;;;;6.41;64.43;99992.59;18433061;32;20434;-58
2022/12/09 03:53:34;;;;;;;0.70;0.70;;;;;;;6.42;64.33;100003.88;18433943;32;20151;-58
2022/12/09 04:03:39;;;;;;;1.50;1.10;;;;;;;6.41;64.32;99989.16;18433371;32;20093;-58
2022/12/09 04:13:42;;;;;;;2.05;1.87;;;;;;;6.44;64.56;99978.81;18433087;32;20111;-58
2022/12/09 04:23:47;;;;;;;1.35;1.25;;;;;;;6.48;64.46;99997.00;18433622;32;20089;-58
2022/12/09 04:33:50;;;;;;;2.40;1.52;;;;;;;6.34;65.28;99980.44;18432123;32;20118;-58
2022/12/09 04:43:55;;;;;;;0.60;0.60;;;;;;;6.51;64.88;99984.03;18431897;32;20103;-58
2022/12/09 04:53:58;;;;;;;1.05;1.05;;;;;;;6.63;65.05;99975.50;18432528;32;20115;-58
2022/12/09 05:04:03;;;;;;;0.73;0.73;;;;;;;6.59;65.39;99980.66;18431146;32;20128;-58
2022/12/09 05:14:07;;;;;;;0.98;0.98;;;;;;;6.56;65.70;99970.25;18430736;32;20112;-58
2022/12/09 05:24:12;;;;;;;1.08;1.08;;;;;;;6.55;65.71;99968.53;18431039;32;20081;-57
2022/12/09 05:34:16;;;;;;;3.80;1.17;;;;;;;6.61;65.88;99969.44;18429575;32;20668;-58
2022/12/09 05:44:21;;;;;;;0.93;0.93;;;;;;;6.61;66.02;99963.37;18428887;32;20093;-58
2022/12/09 05:54:24;;;;;;;1.77;1.67;;;;;;;6.67;66.01;99963.41;18428422;32;20098;-58
2022/12/09 06:04:29;;;;;;;1.77;1.12;;;;;;;6.17;68.31;99962.16;18432254;32;20093;-57
2022/12/09 06:14:32;;;;;;;1.95;1.48;;;;;;;6.69;66.35;99951.31;18436233;32;20101;-57
2022/12/09 06:24:37;;;;;;;0.82;0.82;;;;;;;6.77;66.21;99949.66;18435694;32;20089;-59
2022/12/09 06:34:40;;;;;;;0.98;0.98;;;;;;;6.89;65.68;99948.84;18435922;32;20374;-58
2022/12/09 06:44:45;;;;;;;1.05;1.05;;;;;;;6.74;66.12;99939.25;18434558;32;20484;-58
2022/12/09 06:54:49;;;;;;;0.70;0.70;;;;;;;6.62;67.33;99934.84;18430921;32;20821;-58
2022/12/09 07:04:54;;;;;;;2.15;2.05;;;;;;;6.82;66.76;99936.69;18413670;32;20173;-58
2022/12/09 07:14:58;;;;;;;1.08;1.05;;;;;;;6.76;67.21;99941.84;18369031;32;20142;-58
2022/12/09 07:25:02;;;;;;;0.80;0.80;;;;;;;6.71;67.49;99935.78;18369863;32;20153;-58
2022/12/09 07:35:07;;;;;;;1.05;0.93;;;;;;;6.69;67.85;99920.19;18367843;32;20093;-58
2022/12/09 07:45:13;;;;;;;3.10;2.90;;;;;;;6.97;67.57;99914.28;18369752;32;20097;-58
2022/12/09 07:55:16;;;;;;;2.75;2.05;;;;;;;7.07;67.35;99911.75;18396997;32;20449;-58
2022/12/09 08:05:21;;;;;;;1.58;1.20;;;;;;;6.98;68.27;99916.87;18429596;32;20093;-58
2022/12/09 08:15:24;;;;;;;1.02;1.02;;;;;;;7.22;67.33;99920.47;18429985;32;20343;-60
2022/12/09 08:25:29;;;;;;;1.85;1.50;;;;;;;6.71;69.39;99904.66;18428922;32;20115;-58
2022/12/09 08:35:33;;;;;;;2.40;2.25;;;;;;;6.50;70.14;99904.50;18431504;32;20163;-58
2022/12/09 08:45:38;;;;;;;1.35;1.12;;;;;;;6.76;69.15;99889.97;18432048;32;20406;-58
2022/12/09 08:55:42;;;;;;;2.05;1.23;;;;;;;7.02;68.95;99887.50;18422861;32;20113;-58
2022/12/09 09:05:47;;;;;;;1.65;1.58;;;;;;;6.46;70.95;99882.03;18431405;32;20097;-58
2022/12/09 09:15:51;;;;;;;1.45;1.35;;;;;;;7.16;68.70;99859.00;18428483;32;20672;-59
2022/12/09 09:25:56;;;;;;;6.03;3.00;;;;;;;6.58;70.54;99868.25;18428979;32;20115;-60
2022/12/09 09:36:02;;;;;;;0.65;0.65;;;;;;;7.29;68.96;99846.06;18433731;32;20101;-59
2022/12/09 09:46:19;;;;;;;1.23;1.17;;;;;;;7.36;68.83;99835.66;18436142;32;20092;-60
2022/12/09 09:56:26;;;;;;;0.90;0.90;;;;;;;7.41;68.75;99814.06;18434788;32;20104;-60
2022/12/09 10:06:38;;;;;;;1.25;1.15;;;;;;;7.45;68.40;99811.47;18431579;32;20152;-60
2022/12/09 10:16:45;;;;;;;2.70;2.58;;;;;;;7.24;68.89;99794.13;18435637;32;20125;-60
2022/12/09 10:26:57;;;;;;;1.35;1.20;;;;;;;7.58;67.83;99775.94;18437888;32;20112;-60
2022/12/09 10:37:00;;;;;;;1.27;1.25;;;;;;;7.44;68.59;99756.91;18435556;32;20162;-60
2022/12/09 10:47:07;;;;;;;1.52;1.42;;;;;;;7.42;68.34;99736.13;18434717;32;20101;-59
2022/12/09 10:57:25;;;;;;;1.67;1.58;;;;;;;7.15;69.15;99705.84;18474632;32;20388;-59
2022/12/09 11:07:30;;;;;;;1.55;1.45;;;;;;;7.24;69.40;99679.88;18483126;32;20107;-59
2022/12/09 11:17:35;;;;;;;1.02;1.02;;;;;;;7.29;69.50;99656.53;18445116;32;20097;-59
2022/12/09 11:27:42;;;;;;;0.50;0.50;;;;;;;7.22;69.96;99625.34;18405097;32;20088;-60
2022/12/09 11:37:46;;;;;;;0.43;0.43;;;;;;;7.18;70.49;99605.47;18368386;32;20105;-60
2022/12/09 11:47:51;;;;;;;1.65;0.90;;;;;;;7.24;70.10;99612.37;18428060;32;20092;-60
2022/12/09 11:58:16;;;;;;;0.80;0.80;;;;;;;7.29;70.01;99584.66;18492465;32;20424;-60
2022/12/09 12:08:25;;;;;;;0.45;0.45;;;;;;;7.33;69.64;99586.41;18494623;32;20096;-60
2022/12/09 12:18:33;;;;;;;1.55;1.37;;;;;;;7.39;69.71;99571.66;18471804;32;20109;-59
2022/12/09 12:29:09;;;;;;;1.02;1.02;;;;;;;7.33;70.00;99581.22;18442973;32;20418;-60
2022/12/09 12:39:22;;;;;;;0.50;0.50;;;;;;;6.72;72.51;99561.38;18379445;32;20141;-60
2022/12/09 12:49:39;;;;;;;1.05;0.95;;;;;;;6.46;73.64;99552.72;18408983;32;20085;-60
2022/12/09 12:59:49;;;;;;;0.80;0.80;;;;;;;6.54;72.50;99521.63;18427714;32;20522;-60
2022/12/09 13:09:57;;;;;;;2.45;2.22;;;;;;;7.39;70.25;99523.22;18425916;32;20464;-60
2022/12/09 13:20:02;;;;;;;0.70;0.70;;;;;;;7.16;71.29;99512.91;18425359;32;20114;-61
2022/12/09 13:30:12;;;;;;;1.35;0.80;;;;;;;7.08;71.22;99515.53;18427325;32;20441;-60
2022/12/09 13:40:33;;;;;;;0.40;0.40;;;;;;;6.67;72.62;99488.75;18407434;32;20425;-60
2022/12/09 13:50:40;;;;;;;1.70;1.43;;;;;;;7.28;70.68;99493.84;18474603;32;20093;-60
2022/12/09 14:00:44;;;;;;;0.50;0.50;;;;;;;7.22;71.26;99486.94;18450992;32;20354;-60
2022/12/09 14:10:51;;;;;;;3.62;3.33;;;;;;;5.96;75.91;99480.03;18490349;32;20097;-60
2022/12/09 14:21:32;;;;;;;0.82;0.82;;;;;;;7.31;71.45;99473.91;18474480;32;20331;-60
2022/12/09 14:31:46;;;;;;;0.45;0.45;;;;;;;7.16;72.32;99463.56;18437678;32;20100;-59
2022/12/09 14:41:54;;;;;;;0.60;0.60;;;;;;;6.12;77.07;99454.19;18433051;32;20115;-60
2022/12/09 14:52:01;;;;;;;0.40;0.40;;;;;;;6.42;75.37;99434.31;18432828;32;20105;-62
2022/12/09 15:02:23;;;;;;;0.50;0.50;;;;;;;6.46;75.29;99412.72;18497733;32;20460;-60
2022/12/09 15:12:30;;;;;;;0.60;0.60;;;;;;;6.82;73.35;99406.59;18495560;32;20104;-60
2022/12/09 15:22:34;;;;;;;0.60;0.60;;;;;;;7.28;71.74;99375.25;18494538;32;20085;-60
2022/12/09 15:32:39;;;;;;;0.50;0.50;;;;;;;7.64;70.31;99364.69;18446359;32;20116;-59
2022/12/09 15:42:44;;;;;;;0.57;0.57;;;;;;;7.71;69.95;99357.69;18387970;32;20108;-60
2022/12/09 15:52:51;;;;;;;0.75;0.75;;;;;;;7.82;69.83;99349.81;18492505;32;20104;-59
2022/12/09 16:02:54;;;;;;;5.12;3.00;;;;;;;7.79;69.82;99335.12;18498026;32;20132;-59
2022/12/09 16:13:07;;;;;;;0.95;0.88;;;;;;;7.88;69.46;99306.47;18497511;32;20136;-59
2022/12/09 16:23:20;;;;;;;0.62;0.62;;;;;;;7.73;70.33;99302.28;18492082;32;163307;-59
2022/12/09 16:33:26;;;;;;;0.60;0.60;;;;;;;7.94;69.56;99294.28;18496688;32;20077;-60
2022/12/09 16:43:30;;;;;;;3.70;3.45;;;;;;;7.84;69.91;99283.97;18496987;32;20097;-60
2022/12/09 16:53:38;;;;;;;1.10;0.88;;;;;;;7.98;69.27;99268.25;18496265;32;20627;-59
2022/12/09 17:03:45;;;;;;;3.53;1.50;;;;;;;7.91;69.52;99227.59;18482555;32;20466;-59
2022/12/09 17:13:50;;;;;;;1.52;1.42;;;;;;;7.94;69.35;99221.50;18496281;32;20104;-59
2022/12/09 17:23:54;;;;;;;1.80;1.27;;;;;;;7.84;69.60;99212.97;18480319;32;20111;-59
2022/12/09 17:33:58;;;;;;;1.20;1.15;;;;;;;7.85;69.70;99192.16;18479533;32;20093;-59
2022/12/09 17:44:02;;;;;;;0.73;0.65;;;;;;;7.83;69.58;99178.31;18493951;32;20092;-59
2022/12/09 17:54:06;;;;;;;0.60;0.60;;;;;;;7.85;69.61;99179.16;18478771;32;20179;-59
2022/12/09 18:04:10;;;;;;;0.35;0.35;;;;;;;7.71;70.20;99166.31;18500813;32;20101;-59
2022/12/09 18:14:15;;;;;;;0.70;0.70;;;;;;;7.50;71.08;99151.81;18502136;32;20088;-59
2022/12/09 18:24:19;;;;;;;0.60;0.60;;;;;;;7.55;71.01;99142.22;18501527;32;20088;-60
2022/12/09 18:34:24;;;;;;;1.10;0.90;;;;;;;7.69;70.54;99128.25;18402037;32;20124;-59
2022/12/09 18:44:27;;;;;;;1.23;1.17;;;;;;;7.84;69.88;99115.09;18371333;32;20172;-60
2022/12/09 18:54:32;;;;;;;0.40;0.40;;;;;;;7.33;72.15;99082.75;18371169;32;20138;-60
2022/12/09 19:04:35;;;;;;;1.67;1.58;;;;;;;7.56;71.19;99065.19;18371026;32;20097;-59
2022/12/09 19:14:40;;;;;;;0.57;0.57;;;;;;;7.71;70.82;99082.34;18370274;32;20505;-59
2022/12/09 19:24:44;;;;;;;1.75;1.48;;;;;;;7.82;70.54;99077.00;18370294;32;20097;-59
2022/12/09 19:34:49;;;;;;;0.80;0.77;;;;;;;8.02;70.02;99082.81;18368434;32;20428;-60
2022/12/09 19:44:52;;;;;;;1.10;1.10;;;;;;;8.00;70.23;99063.78;18371095;32;20354;-60
2022/12/09 19:55:07;;;;;;;0.88;0.88;;;;;;;8.05;70.32;99046.38;18369279;32;20438;-59
2022/12/09 20:05:10;;;;;;;0.45;0.45;;;;;;;8.02;70.46;99051.66;18369523;32;20085;-59
2022/12/09 20:15:15;;;;;;;0.37;0.37;;;;;;;8.07;70.56;99016.91;18370253;32;20139;-59
2022/12/09 20:25:18;;;;;;;0.88;0.88;;;;;;;7.97;71.28;98998.00;18430686;32;20096;-60
2022/12/09 20:35:23;;;;;;;0.50;0.50;;;;;;;7.95;71.32;98974.63;18463574;32;20527;-60
2022/12/09 20:45:26;;;;;;;2.45;1.15;;;;;;;8.27;70.27;98965.47;18438289;32;20093;-60
2022/12/09 20:55:31;;;;;;;0.60;0.60;;;;;;;8.31;70.07;98955.91;18436711;32;20672;-60
2022/12/09 21:05:36;;;;;;;0.40;0.40;;;;;;;8.35;70.08;98935.91;18426413;32;20104;-60
2022/12/09 21:15:40;;;;;;;1.85;1.75;;;;;;;8.41;69.70;98915.84;18435487;32;20131;-60
2022/12/09 21:25:44;;;;;;;1.17;1.17;;;;;;;8.36;70.16;98924.63;18433165;32;20109;-60
2022/12/09 21:35:49;;;;;;;0.50;0.50;;;;;;;8.55;69.91;98917.41;18430758;32;20096;-60
2022/12/09 21:45:53;;;;;;;0.60;0.60;;;;;;;6.58;78.12;98901.00;18424013;32;20115;-60
2022/12/09 21:56:02;;;;;;;0.65;0.65;;;;;;;6.74;80.26;98914.69;18432942;32;20410;-60
2022/12/09 22:06:07;;;;;;;1.58;1.52;;;;;;;7.99;74.77;98936.47;18424467;32;20100;-60
2022/12/09 22:16:13;;;;;;;1.30;1.23;;;;;;;8.08;74.42;98922.47;18423054;32;20146;-60
2022/12/09 22:26:19;;;;;;;0.47;0.47;;;;;;;8.71;71.62;98934.44;18474668;32;20096;-60
2022/12/09 22:36:24;;;;;;;0.60;0.60;;;;;;;8.91;70.65;98920.19;18482026;32;20537;-60
2022/12/09 22:46:29;;;;;;;0.57;0.57;;;;;;;8.76;70.99;98917.91;18414684;32;20105;-60
2022/12/09 22:56:35;;;;;;;1.85;0.95;;;;;;;8.95;70.33;98908.84;18452096;32;20096;-60
2022/12/09 23:06:40;;;;;;;0.60;0.60;;;;;;;8.83;70.41;98911.69;18465258;32;20096;-60
2022/12/09 23:16:45;;;;;;;0.50;0.50;;;;;;;8.73;70.42;98914.47;18410753;32;20591;-60
2022/12/09 23:26:48;;;;;;;0.68;0.68;;;;;;;8.65;70.37;98911.16;18408473;32;20131;-60
2022/12/09 23:36:52;;;;;;;2.60;2.25;;;;;;;8.67;70.10;98900.69;18408219;32;20457;-60
2022/12/09 23:46:55;;;;;;;0.60;0.60;;;;;;;8.79;69.74;98904.81;18408799;32;20583;-60
2022/12/09 23:57:00;;;;;;;0.55;0.55;;;;;;;8.77;69.83;98910.03;18407740;32;20093;-60
